createdAt,value
2022-11-01T00:00:39.157Z,101040.00
2022-11-01T00:04:04.131Z,101014.69
2022-11-01T00:07:28.162Z,101026.38
2022-11-01T00:10:52.150Z,101026.78
2022-11-01T00:14:16.158Z,101025.06
2022-11-01T00:17:40.145Z,101017.56
2022-11-01T00:21:04.161Z,101003.13
2022-11-01T00:24:28.148Z,101009.59
2022-11-01T00:27:52.160Z,101016.66
2022-11-01T00:31:16.144Z,101003.16
2022-11-01T00:34:41.156Z,101008.28
2022-11-01T00:38:04.307Z,100988.41
2022-11-01T00:41:29.156Z,101003.75
2022-11-01T00:44:53.141Z,100985.03
2022-11-01T00:48:17.161Z,100999.19
2022-11-01T00:51:42.162Z,100999.56
2022-11-01T00:55:06.182Z,100990.63
2022-11-01T00:58:29.151Z,100989.66
2022-11-01T01:01:53.283Z,100976.28
2022-11-01T01:05:17.162Z,100981.63
2022-11-01T01:08:41.203Z,100972.25
2022-11-01T01:12:07.157Z,100981.78
2022-11-01T01:15:30.206Z,100975.94
2022-11-01T01:18:54.162Z,100954.59
2022-11-01T01:22:18.196Z,100962.13
2022-11-01T01:25:42.187Z,100950.66
2022-11-01T01:29:09.173Z,100951.63
2022-11-01T01:32:36.196Z,100967.13
2022-11-01T01:36:00.179Z,100947.81
2022-11-01T01:39:23.203Z,100949.00
2022-11-01T01:42:47.185Z,100958.16
2022-11-01T01:46:11.191Z,100946.31
2022-11-01T01:49:36.403Z,100948.91
2022-11-01T01:53:08.174Z,100943.09
2022-11-01T01:56:40.216Z,100943.31
2022-11-01T02:00:05.215Z,100941.56
2022-11-01T02:03:41.214Z,100935.16
2022-11-01T02:07:05.233Z,100928.66
2022-11-01T02:10:30.190Z,100928.31
2022-11-01T02:13:54.245Z,100932.50
2022-11-01T02:17:45.253Z,100917.06
2022-11-01T02:21:28.227Z,100913.50
2022-11-01T02:25:00.201Z,100926.06
2022-11-01T02:29:00.436Z,100913.09
2022-11-01T02:32:46.224Z,100918.50
2022-11-01T02:36:16.236Z,100918.63
2022-11-01T02:39:50.222Z,100913.53
2022-11-01T02:43:20.244Z,100921.53
2022-11-01T02:47:07.216Z,100929.47
2022-11-01T02:50:31.243Z,100934.91
2022-11-01T02:53:55.231Z,100935.44
2022-11-01T02:57:42.237Z,100938.63
2022-11-01T03:01:05.291Z,100940.63
2022-11-01T03:04:29.215Z,100929.25
2022-11-01T03:07:54.252Z,100923.97
2022-11-01T03:11:29.219Z,100922.00
2022-11-01T03:15:05.260Z,100934.56
2022-11-01T03:18:37.261Z,100928.22
2022-11-01T03:22:27.262Z,100918.09
2022-11-01T03:25:57.234Z,100927.91
2022-11-01T03:29:23.268Z,100925.97
2022-11-01T03:33:02.480Z,100928.34
2022-11-01T03:36:31.273Z,100932.44
2022-11-01T03:40:07.269Z,100936.59
2022-11-01T03:43:32.265Z,100940.81
2022-11-01T03:46:57.272Z,100936.44
2022-11-01T03:50:32.264Z,100944.75
2022-11-01T03:53:56.231Z,100937.88
2022-11-01T03:57:20.303Z,100943.81
2022-11-01T04:00:49.301Z,100954.69
2022-11-01T04:04:13.294Z,100947.72
2022-11-01T04:07:37.295Z,100944.31
2022-11-01T04:11:01.256Z,100953.41
2022-11-01T04:14:43.291Z,100928.31
2022-11-01T04:18:54.272Z,100931.09
2022-11-01T04:22:20.695Z,100926.72
2022-11-01T04:25:48.272Z,100923.41
2022-11-01T04:29:12.302Z,100949.19
2022-11-01T04:32:36.265Z,100938.88
2022-11-01T04:36:01.294Z,100935.66
2022-11-01T04:39:25.280Z,100944.47
2022-11-01T04:42:52.308Z,100958.41
2022-11-01T04:46:16.283Z,100945.31
2022-11-01T04:49:41.328Z,100947.25
2022-11-01T04:52:59.010Z,100955.34
2022-11-01T04:56:19.400Z,100963.72
2022-11-01T04:59:43.288Z,100972.31
2022-11-01T05:03:07.335Z,100971.84
2022-11-01T05:06:31.321Z,100958.38
2022-11-01T05:09:55.303Z,100973.38
2022-11-01T05:13:19.317Z,100960.59
2022-11-01T05:16:45.349Z,100975.47
2022-11-01T05:20:09.315Z,100977.75
2022-11-01T05:23:33.295Z,100999.22
2022-11-01T05:26:57.320Z,100988.53
2022-11-01T05:30:21.318Z,101000.88
2022-11-01T05:33:45.340Z,100996.91
2022-11-01T05:37:09.301Z,100991.09
2022-11-01T05:40:34.333Z,101000.16
2022-11-01T05:43:58.314Z,101000.75
2022-11-01T05:47:22.316Z,101009.59
2022-11-01T05:50:46.352Z,101035.66
2022-11-01T05:54:04.891Z,101036.09
2022-11-01T05:57:22.333Z,101034.47
2022-11-01T06:00:46.307Z,101035.84
2022-11-01T06:04:10.343Z,101038.84
2022-11-01T06:07:34.320Z,101028.88
2022-11-01T06:10:58.472Z,101049.38
2022-11-01T06:14:21.413Z,101053.09
2022-11-01T06:17:44.462Z,101044.69
2022-11-01T06:21:09.352Z,101041.03
2022-11-01T06:24:33.344Z,101053.56
2022-11-01T06:27:57.340Z,101057.09
2022-11-01T06:31:21.365Z,101063.53
2022-11-01T06:34:45.344Z,101084.91
2022-11-01T06:38:10.351Z,101093.75
2022-11-01T06:41:35.367Z,101105.91
2022-11-01T06:44:59.370Z,101094.59
2022-11-01T06:48:22.341Z,101102.19
2022-11-01T06:51:46.398Z,101116.97
2022-11-01T06:55:02.920Z,101112.31
2022-11-01T06:58:21.378Z,101112.28
2022-11-01T07:01:44.573Z,101117.22
2022-11-01T07:05:08.372Z,101129.38
2022-11-01T07:08:32.362Z,101135.13
2022-11-01T07:11:56.349Z,101135.78
2022-11-01T07:15:19.391Z,101131.16
2022-11-01T07:18:43.341Z,101135.50
2022-11-01T07:22:06.385Z,101126.56
2022-11-01T07:25:30.376Z,101119.00
2022-11-01T07:28:54.356Z,101133.69
2022-11-01T07:32:17.385Z,101130.75
2022-11-01T07:35:42.359Z,101137.84
2022-11-01T07:39:06.401Z,101129.16
2022-11-01T07:42:29.362Z,101126.19
2022-11-01T07:45:53.417Z,101129.16
2022-11-01T07:49:18.402Z,101121.00
2022-11-01T07:52:41.435Z,101122.66
2022-11-01T07:56:06.408Z,101141.22
2022-11-01T07:59:30.404Z,101143.66
2022-11-01T08:02:55.397Z,101131.41
2022-11-01T08:06:18.418Z,101142.84
2022-11-01T08:09:42.423Z,101144.19
2022-11-01T08:13:06.379Z,101152.06
2022-11-01T08:16:30.411Z,101151.53
2022-11-01T08:19:53.395Z,101160.22
2022-11-01T08:23:18.346Z,101158.63
2022-11-01T08:26:41.396Z,101171.69
2022-11-01T08:30:07.406Z,101164.56
2022-11-01T08:33:30.395Z,101162.41
2022-11-01T08:36:54.415Z,101180.44
2022-11-01T08:40:17.420Z,101172.50
2022-11-01T08:43:41.431Z,101169.34
2022-11-01T08:47:09.386Z,101167.84
2022-11-01T08:50:33.440Z,101169.78
2022-11-01T08:53:59.310Z,101173.19
2022-11-01T08:57:24.428Z,101181.19
2022-11-01T09:00:49.479Z,101171.56
2022-11-01T09:04:13.429Z,101186.88
2022-11-01T09:07:38.440Z,101181.94
2022-11-01T09:11:02.416Z,101197.50
2022-11-01T09:14:31.430Z,101194.19
2022-11-01T09:17:54.409Z,101192.03
2022-11-01T09:21:18.440Z,101191.25
2022-11-01T09:24:43.426Z,101197.50
2022-11-01T09:28:07.443Z,101189.53
2022-11-01T09:31:31.446Z,101165.38
2022-11-01T09:34:57.441Z,101187.69
2022-11-01T09:38:21.430Z,101188.97
2022-11-01T09:41:58.445Z,101179.25
2022-11-01T09:45:36.425Z,101167.97
2022-11-01T09:49:01.474Z,101171.66
2022-11-01T09:52:35.442Z,101159.66
2022-11-01T09:56:20.445Z,101171.44
2022-11-01T10:00:07.449Z,101175.44
2022-11-01T10:03:47.479Z,101165.03
2022-11-01T10:07:43.426Z,101164.69
2022-11-01T10:11:32.465Z,101179.88
2022-11-01T10:15:02.460Z,101181.25
2022-11-01T10:18:55.551Z,101179.66
2022-11-01T10:22:48.469Z,101189.00
2022-11-01T10:26:13.483Z,101189.00
2022-11-01T10:29:43.475Z,101186.34
2022-11-01T10:33:35.467Z,101188.03
2022-11-01T10:37:00.486Z,101201.25
2022-11-01T10:40:30.434Z,101198.16
2022-11-01T10:44:02.469Z,101202.63
2022-11-01T10:47:36.457Z,101191.41
2022-11-01T10:50:59.472Z,101178.19
2022-11-01T10:54:30.449Z,101178.47
2022-11-01T10:57:58.486Z,101181.06
2022-11-01T11:01:23.604Z,101180.91
2022-11-01T11:04:47.442Z,101185.72
2022-11-01T11:08:15.509Z,101197.38
2022-11-01T11:11:54.480Z,101197.91
2022-11-01T11:15:35.296Z,101197.44
2022-11-01T11:19:34.444Z,101197.03
2022-11-01T11:22:58.485Z,101197.72
2022-11-01T11:26:38.418Z,101207.44
2022-11-01T11:30:07.512Z,101218.41
2022-11-01T11:33:32.479Z,101219.53
2022-11-01T11:37:01.851Z,101214.94
2022-11-01T11:40:28.476Z,101214.31
2022-11-01T11:43:52.512Z,101211.44
2022-11-01T11:47:16.480Z,101210.44
2022-11-01T11:50:42.498Z,101203.59
2022-11-01T11:54:36.467Z,101206.03
2022-11-01T11:58:05.730Z,101208.13
2022-11-01T12:01:49.625Z,101206.31
2022-11-01T12:05:16.512Z,101209.50
2022-11-01T12:08:54.121Z,101213.47
2022-11-01T12:12:50.514Z,101222.44
2022-11-01T12:19:57.521Z,101195.97
2022-11-01T12:23:39.484Z,101204.28
2022-11-01T12:27:05.611Z,101193.94
2022-11-01T12:30:37.483Z,101202.19
2022-11-01T12:34:14.514Z,101207.34
2022-11-01T12:37:45.482Z,101221.06
2022-11-01T12:41:10.526Z,101214.19
2022-11-01T12:44:45.504Z,101212.28
2022-11-01T12:48:12.520Z,101210.50
2022-11-01T12:51:43.546Z,101199.88
2022-11-01T12:55:20.998Z,101189.00
2022-11-01T12:58:45.514Z,101194.84
2022-11-01T13:02:12.556Z,101200.66
2022-11-01T13:06:00.506Z,101196.34
2022-11-01T13:09:30.532Z,101187.31
2022-11-01T13:13:09.521Z,101183.00
2022-11-01T13:16:51.528Z,101181.44
2022-11-01T13:20:35.503Z,101177.81
2022-11-01T13:24:04.549Z,101169.59
2022-11-01T13:28:12.536Z,101161.59
2022-11-01T13:31:52.510Z,101161.75
2022-11-01T13:35:45.534Z,101156.00
2022-11-01T13:39:11.572Z,101141.88
2022-11-01T13:42:55.539Z,101152.47
2022-11-01T13:46:28.514Z,101151.16
2022-11-01T13:50:21.569Z,101147.34
2022-11-01T13:54:09.519Z,101138.75
2022-11-01T13:57:34.561Z,101143.53
2022-11-01T14:01:04.544Z,101133.16
2022-11-01T14:04:31.569Z,101142.44
2022-11-01T14:08:01.764Z,101145.38
2022-11-01T14:11:49.557Z,101148.66
2022-11-01T14:15:32.514Z,101145.84
2022-11-01T14:19:22.583Z,101150.88
2022-11-01T14:22:49.536Z,101155.56
2022-11-01T14:26:37.701Z,101147.59
2022-11-01T14:30:04.557Z,101153.09
2022-11-01T14:33:39.563Z,101155.56
2022-11-01T14:37:05.540Z,101142.19
2022-11-01T14:40:34.558Z,101146.53
2022-11-01T14:44:19.618Z,101144.47
2022-11-01T14:47:51.563Z,101143.94
2022-11-01T14:51:21.546Z,101139.38
2022-11-01T14:55:05.594Z,101147.47
2022-11-01T14:58:39.537Z,101135.44
2022-11-01T15:02:02.711Z,101141.63
2022-11-01T15:05:23.120Z,101143.72
2022-11-01T15:08:48.589Z,101139.97
2022-11-01T15:12:22.585Z,101139.28
2022-11-01T15:15:51.555Z,101135.78
2022-11-01T15:19:19.575Z,101152.91
2022-11-01T15:22:45.598Z,101131.78
2022-11-01T15:26:13.551Z,101126.97
2022-11-01T15:29:40.592Z,101129.19
2022-11-01T15:33:28.701Z,101143.50
2022-11-01T15:36:53.563Z,101127.78
2022-11-01T15:40:44.599Z,101135.75
2022-11-01T15:44:10.564Z,101133.06
2022-11-01T15:47:40.605Z,101128.94
2022-11-01T15:51:17.574Z,101133.88
2022-11-01T15:54:42.620Z,101135.91
2022-11-01T15:58:33.562Z,101135.41
2022-11-01T16:01:59.810Z,101137.84
2022-11-01T16:05:28.574Z,101132.56
2022-11-01T16:08:57.608Z,101140.16
2022-11-01T16:12:31.561Z,101147.56
2022-11-01T16:15:54.606Z,101147.03
2022-11-01T16:19:19.568Z,101146.25
2022-11-01T16:22:48.600Z,101145.19
2022-11-01T16:26:18.594Z,101141.38
2022-11-01T16:30:07.633Z,101140.38
2022-11-01T16:33:48.645Z,101146.84
2022-11-01T16:37:12.614Z,101135.81
2022-11-01T16:40:42.591Z,101133.94
2022-11-01T16:44:10.672Z,101140.28
2022-11-01T16:47:34.600Z,101139.47
2022-11-01T16:50:58.610Z,101144.97
2022-11-01T16:54:23.590Z,101144.81
2022-11-01T16:57:47.649Z,101145.25
2022-11-01T17:01:11.707Z,101146.94
2022-11-01T17:04:36.616Z,101150.44
2022-11-01T17:07:54.177Z,101153.41
2022-11-01T17:11:11.649Z,101157.38
2022-11-01T17:14:36.633Z,101161.13
2022-11-01T17:18:02.967Z,101167.50
2022-11-01T17:21:27.600Z,101176.31
2022-11-01T17:24:51.648Z,101179.59
2022-11-01T17:28:16.873Z,101179.00
2022-11-01T17:31:43.501Z,101180.53
2022-11-01T17:35:07.894Z,101179.00
2022-11-01T17:38:37.820Z,101181.28
2022-11-01T17:42:02.889Z,101189.19
2022-11-01T17:45:29.161Z,101195.22
2022-11-01T17:48:53.933Z,101196.84
2022-11-01T17:52:17.850Z,101190.69
2022-11-01T17:55:41.949Z,101184.50
2022-11-01T17:59:04.915Z,101180.78
2022-11-01T18:02:29.058Z,101187.72
2022-11-01T18:05:52.887Z,101184.53
2022-11-01T18:09:16.928Z,101187.47
2022-11-01T18:12:57.932Z,101171.97
2022-11-01T18:16:45.029Z,101166.41
2022-11-01T18:20:12.967Z,101158.56
2022-11-01T18:23:38.962Z,101159.38
2022-11-01T18:27:02.968Z,101160.50
2022-11-01T18:30:34.008Z,101160.06
2022-11-01T18:34:06.923Z,101162.94
2022-11-01T18:37:39.989Z,101164.00
2022-11-01T18:41:13.223Z,101162.94
2022-11-01T18:44:36.930Z,101160.50
2022-11-01T18:48:15.875Z,101168.19
2022-11-01T18:51:46.928Z,101168.03
2022-11-01T18:55:11.918Z,101172.97
2022-11-01T18:58:43.922Z,101178.03
2022-11-01T19:02:12.129Z,101190.53
2022-11-01T19:05:36.968Z,101181.72
2022-11-01T19:09:14.028Z,101172.06
2022-11-01T19:13:05.935Z,101189.44
2022-11-01T19:16:30.930Z,101184.41
2022-11-01T19:19:56.984Z,101186.13
2022-11-01T19:23:38.918Z,101183.09
2022-11-01T19:27:03.985Z,101177.19
2022-11-01T19:30:38.057Z,101186.09
2022-11-01T19:34:03.943Z,101184.47
2022-11-01T19:37:40.025Z,101178.78
2022-11-01T19:41:07.891Z,101182.28
2022-11-01T19:44:37.963Z,101177.06
2022-11-01T19:48:03.172Z,101169.31
2022-11-01T19:51:46.004Z,101173.59
2022-11-01T19:55:08.985Z,101165.72
2022-11-01T19:58:42.458Z,101153.84
2022-11-01T20:02:10.175Z,101137.38
2022-11-01T20:05:45.967Z,101145.88
2022-11-01T20:09:08.389Z,101135.06
2022-11-01T20:12:33.955Z,101136.03
2022-11-01T20:15:57.938Z,101141.84
2022-11-01T20:19:22.030Z,101125.72
2022-11-01T20:22:54.539Z,101127.50
2022-11-01T20:26:24.902Z,101128.47
2022-11-01T20:29:48.820Z,101127.94
2022-11-01T20:33:13.786Z,101130.44
2022-11-01T20:36:37.885Z,101126.53
2022-11-01T20:40:01.849Z,101115.19
2022-11-01T20:43:25.855Z,101114.44
2022-11-01T20:46:51.875Z,101118.69
2022-11-01T20:50:18.851Z,101117.84
2022-11-01T20:53:41.901Z,101111.03
2022-11-01T20:57:09.753Z,101114.44
2022-11-01T21:00:40.034Z,101108.38
2022-11-01T21:04:03.970Z,101114.25
2022-11-01T21:07:28.990Z,101109.53
2022-11-01T21:10:53.916Z,101113.19
2022-11-01T21:14:30.929Z,101113.56
2022-11-01T21:17:54.944Z,101109.63
2022-11-01T21:21:56.978Z,101089.38
2022-11-01T21:25:19.880Z,101074.53
2022-11-01T21:29:02.850Z,101072.44
2022-11-01T21:32:50.914Z,101062.41
2022-11-01T21:36:14.852Z,101065.00
2022-11-01T21:39:46.739Z,101066.81
2022-11-01T21:43:11.901Z,101071.31
2022-11-01T21:46:37.956Z,101068.84
2022-11-01T21:50:02.855Z,101066.44
2022-11-01T21:53:26.933Z,101062.31
2022-11-01T21:56:50.801Z,101052.13
2022-11-01T22:00:14.408Z,101060.88
2022-11-01T22:03:38.781Z,101051.34
2022-11-01T22:07:01.783Z,101072.03
2022-11-01T22:10:25.982Z,101059.25
2022-11-01T22:13:49.809Z,101057.09
2022-11-01T22:17:13.986Z,101048.63
2022-11-01T22:20:38.915Z,101049.16
2022-11-01T22:24:16.833Z,101035.38
2022-11-01T22:27:41.890Z,101042.00
2022-11-01T22:31:06.959Z,101037.81
2022-11-01T22:34:30.957Z,101042.75
2022-11-01T22:37:55.913Z,101029.59
2022-11-01T22:41:51.969Z,101035.22
2022-11-01T22:45:16.833Z,101033.63
2022-11-01T22:48:41.979Z,101016.09
2022-11-01T22:52:18.881Z,101008.06
2022-11-01T22:55:42.904Z,101023.19
2022-11-01T22:59:07.018Z,101012.66
2022-11-01T23:02:51.129Z,101019.81
2022-11-01T23:06:20.929Z,101013.53
2022-11-01T23:09:44.853Z,101024.38
2022-11-01T23:13:43.925Z,101023.16
2022-11-01T23:17:01.444Z,101018.28
2022-11-01T23:20:20.031Z,101002.91
2022-11-01T23:23:42.788Z,100990.78
2022-11-01T23:27:05.943Z,100988.22
2022-11-01T23:30:30.951Z,100995.47
2022-11-01T23:33:58.870Z,100994.28
2022-11-01T23:37:41.791Z,100996.09
2022-11-01T23:41:05.808Z,100995.94
2022-11-01T23:44:33.799Z,100979.19
2022-11-01T23:47:57.852Z,100964.16
2022-11-01T23:51:20.893Z,100971.19
2022-11-01T23:54:55.811Z,100964.41
2022-11-01T23:58:21.836Z,100959.09
